createdAt,value
2018-12-23T00:02:10.973Z,8.70
2018-12-23T00:04:44.976Z,8.70
2018-12-23T00:07:18.794Z,8.70
2018-12-23T00:09:52.838Z,8.60
2018-12-23T00:12:26.933Z,8.70
2018-12-23T00:14:58.615Z,8.60
2018-12-23T00:17:30.531Z,8.60
2018-12-23T00:20:06.009Z,8.50
2018-12-23T00:22:39.954Z,8.50
2018-12-23T00:25:13.939Z,8.50
2018-12-23T00:27:45.522Z,8.50
2018-12-23T00:30:16.771Z,8.60
2018-12-23T00:32:51.270Z,8.60
2018-12-23T00:35:25.498Z,8.60
2018-12-23T00:37:59.406Z,8.60
2018-12-23T00:40:33.314Z,8.60
2018-12-23T00:43:07.102Z,8.60
2018-12-23T00:45:41.018Z,8.60
2018-12-23T00:48:12.714Z,8.70
2018-12-23T00:50:47.005Z,8.70
2018-12-23T00:53:21.085Z,8.70
2018-12-23T00:55:59.092Z,8.70
2018-12-23T00:58:33.078Z,8.70
2018-12-23T01:01:07.009Z,8.70
2018-12-23T01:03:40.849Z,8.70
2018-12-23T01:06:12.529Z,8.70
2018-12-23T01:08:46.913Z,8.70
2018-12-23T01:11:20.996Z,8.70
2018-12-23T01:13:54.717Z,8.70
2018-12-23T01:16:26.399Z,8.80
2018-12-23T01:19:01.006Z,8.80
2018-12-23T01:21:32.473Z,8.80
2018-12-23T01:24:06.871Z,8.80
2018-12-23T01:26:38.387Z,8.80
2018-12-23T01:29:09.561Z,8.80
2018-12-23T01:31:44.057Z,8.80
2018-12-23T01:34:18.278Z,8.70
2018-12-23T01:36:49.814Z,8.70
2018-12-23T01:39:23.533Z,8.80
2018-12-23T01:41:53.048Z,8.80
2018-12-23T01:44:25.077Z,8.80
2018-12-23T01:46:59.282Z,8.90
2018-12-23T01:49:33.193Z,8.80
2018-12-23T01:52:07.250Z,8.80
2018-12-23T01:54:42.978Z,8.90
2018-12-23T01:57:14.985Z,8.80
2018-12-23T01:59:48.698Z,8.80
2018-12-23T02:02:20.273Z,8.80
2018-12-23T02:04:54.583Z,8.80
2018-12-23T02:07:28.696Z,8.80
2018-12-23T02:10:02.734Z,8.80
2018-12-23T02:12:34.193Z,8.80
2018-12-23T02:15:06.265Z,8.80
2018-12-23T02:17:40.467Z,8.80
2018-12-23T02:20:14.499Z,8.90
2018-12-23T02:22:46.273Z,8.90
2018-12-23T02:25:20.780Z,8.80
2018-12-23T02:27:54.394Z,8.80
2018-12-23T02:30:28.307Z,8.80
2018-12-23T02:32:59.977Z,8.80
2018-12-23T02:35:31.235Z,8.80
2018-12-23T02:38:05.745Z,8.90
2018-12-23T02:40:37.667Z,8.80
2018-12-23T02:43:12.079Z,8.90
2018-12-23T02:45:43.705Z,8.90
2018-12-23T02:48:17.465Z,8.90
2018-12-23T02:50:51.551Z,8.90
2018-12-23T02:53:25.537Z,8.80
2018-12-23T02:55:57.211Z,8.90
2018-12-23T02:58:31.410Z,8.80
2018-12-23T03:01:05.436Z,8.80
2018-12-23T03:03:39.430Z,8.80
2018-12-23T03:06:13.229Z,8.80
2018-12-23T03:08:47.423Z,8.80
2018-12-23T03:11:21.521Z,8.80
2018-12-23T03:13:55.539Z,8.80
2018-12-23T03:16:26.905Z,8.80
2018-12-23T03:18:58.270Z,8.90
2018-12-23T03:21:30.209Z,8.90
2018-12-23T03:24:04.709Z,8.80
2018-12-23T03:26:36.175Z,8.80
2018-12-23T03:29:08.306Z,8.80
2018-12-23T03:31:40.166Z,8.80
2018-12-23T03:34:14.553Z,8.90
2018-12-23T03:36:48.470Z,8.90
2018-12-23T03:39:22.529Z,8.90
2018-12-23T03:41:56.688Z,8.80
2018-12-23T03:44:30.490Z,8.80
2018-12-23T03:47:04.410Z,8.80
2018-12-23T03:50:27.882Z,8.80
2018-12-23T03:52:57.082Z,8.80
2018-12-23T03:55:26.286Z,8.90
2018-12-23T03:57:55.482Z,8.90
2018-12-23T04:00:24.686Z,8.80
2018-12-23T04:02:54.175Z,8.80
2018-12-23T04:05:23.371Z,8.80
2018-12-23T04:07:52.879Z,8.80
2018-12-23T04:10:22.079Z,8.80
2018-12-23T04:12:51.266Z,8.80
2018-12-23T04:15:20.554Z,8.80
2018-12-23T04:17:50.231Z,8.80
2018-12-23T04:20:19.441Z,8.80
2018-12-23T04:22:48.764Z,8.70
2018-12-23T04:25:17.949Z,8.70
2018-12-23T04:27:47.145Z,8.70
2018-12-23T04:30:16.461Z,8.70
2018-12-23T04:32:45.953Z,8.70
2018-12-23T04:35:15.166Z,8.70
2018-12-23T04:37:44.634Z,8.70
2018-12-23T04:40:13.877Z,8.80
2018-12-23T04:42:43.102Z,8.80
2018-12-23T04:45:12.318Z,8.70
2018-12-23T04:47:41.531Z,8.70
2018-12-23T04:50:10.737Z,8.70
2018-12-23T04:52:39.953Z,8.70
2018-12-23T04:55:09.333Z,8.70
2018-12-23T04:57:38.548Z,8.70
2018-12-23T05:00:07.973Z,8.70
2018-12-23T05:02:37.216Z,8.60
2018-12-23T05:05:06.563Z,8.60
2018-12-23T05:07:35.754Z,8.60
2018-12-23T05:10:05.074Z,8.60
2018-12-23T05:12:34.395Z,8.70
2018-12-23T05:15:03.683Z,8.60
2018-12-23T05:17:32.884Z,8.60
2018-12-23T05:20:02.183Z,8.60
2018-12-23T05:22:31.431Z,8.60
2018-12-23T05:25:00.761Z,8.60
2018-12-23T05:27:30.324Z,8.70
2018-12-23T05:29:59.535Z,8.70
2018-12-23T05:32:28.756Z,8.70
2018-12-23T05:34:58.011Z,8.70
2018-12-23T05:37:27.482Z,8.60
2018-12-23T05:39:56.802Z,8.60
2018-12-23T05:42:26.310Z,8.60
2018-12-23T05:44:55.506Z,8.60
2018-12-23T05:47:24.727Z,8.70
2018-12-23T05:49:53.938Z,8.60
2018-12-23T05:52:23.873Z,8.70
2018-12-23T05:54:53.211Z,8.70
2018-12-23T05:57:22.438Z,8.70
2018-12-23T05:59:51.659Z,8.70
2018-12-23T06:02:20.866Z,8.70
2018-12-23T06:04:50.079Z,8.70
2018-12-23T06:07:19.299Z,8.70
2018-12-23T06:09:48.510Z,8.70
2018-12-23T06:12:17.779Z,8.70
2018-12-23T06:14:47.262Z,8.70
2018-12-23T06:17:16.474Z,8.80
2018-12-23T06:19:45.706Z,8.80
2018-12-23T06:22:14.959Z,8.80
2018-12-23T06:24:44.202Z,8.80
2018-12-23T06:27:13.653Z,8.80
2018-12-23T06:29:42.867Z,8.70
2018-12-23T06:32:12.110Z,8.70
2018-12-23T06:34:41.379Z,8.60
2018-12-23T06:37:10.617Z,8.50
2018-12-23T06:39:39.850Z,8.60
2018-12-23T06:42:09.062Z,8.50
2018-12-23T06:44:38.282Z,8.50
2018-12-23T06:47:07.486Z,8.50
2018-12-23T06:49:36.709Z,8.50
2018-12-23T06:52:05.929Z,8.50
2018-12-23T06:54:35.261Z,8.50
2018-12-23T06:57:04.554Z,8.50
2018-12-23T06:59:33.776Z,8.60
2018-12-23T07:02:02.985Z,8.60
2018-12-23T07:04:34.275Z,8.60
2018-12-23T07:07:03.130Z,8.60
2018-12-23T07:09:32.358Z,8.60
2018-12-23T07:12:01.592Z,8.60
2018-12-23T07:14:31.055Z,8.60
2018-12-23T07:17:00.262Z,8.60
2018-12-23T07:19:29.498Z,8.60
2018-12-23T07:21:58.702Z,8.60
2018-12-23T07:24:27.918Z,8.60
2018-12-23T07:26:57.147Z,8.60
2018-12-23T07:29:26.383Z,8.60
2018-12-23T07:31:55.631Z,8.50
2018-12-23T07:34:24.859Z,8.50
2018-12-23T07:36:54.107Z,8.50
2018-12-23T07:39:23.318Z,8.50
2018-12-23T07:41:52.590Z,8.50
2018-12-23T07:44:21.911Z,8.50
2018-12-23T07:46:51.094Z,8.50
2018-12-23T07:49:20.311Z,8.50
2018-12-23T07:51:49.614Z,8.50
2018-12-23T07:54:18.910Z,8.50
2018-12-23T07:56:48.230Z,8.50
2018-12-23T07:59:17.453Z,8.50
2018-12-23T08:01:46.679Z,8.50
2018-12-23T08:04:15.898Z,8.50
2018-12-23T08:06:45.159Z,8.50
2018-12-23T08:09:14.810Z,8.50
2018-12-23T08:11:44.031Z,8.50
2018-12-23T08:14:14.462Z,8.50
2018-12-23T08:16:43.656Z,8.50
2018-12-23T08:19:13.119Z,8.50
2018-12-23T08:21:42.403Z,8.50
2018-12-23T08:24:11.606Z,8.50
2018-12-23T08:26:40.851Z,8.50
2018-12-23T08:29:10.050Z,8.50
2018-12-23T08:31:39.354Z,8.50
2018-12-23T08:34:08.586Z,8.50
2018-12-23T08:36:38.348Z,8.50
2018-12-23T08:39:08.926Z,8.50
2018-12-23T08:41:38.141Z,8.50
2018-12-23T08:44:07.438Z,8.50
2018-12-23T08:46:39.336Z,8.50
2018-12-23T08:49:10.205Z,8.50
2018-12-23T08:51:39.736Z,8.50
2018-12-23T08:54:09.028Z,8.50
2018-12-23T08:56:38.322Z,8.50
2018-12-23T08:59:07.538Z,8.50
2018-12-23T09:01:36.756Z,8.50
2018-12-23T09:04:06.424Z,8.50
2018-12-23T09:06:35.670Z,8.50
2018-12-23T09:09:06.594Z,8.50
2018-12-23T09:11:42.625Z,8.50
2018-12-23T09:14:06.797Z,8.50
2018-12-23T09:16:36.249Z,8.50
2018-12-23T09:19:05.474Z,8.50
2018-12-23T09:21:34.703Z,8.60
2018-12-23T09:24:04.027Z,8.60
2018-12-23T09:26:33.223Z,8.60
2018-12-23T09:29:02.543Z,8.50
2018-12-23T09:31:32.153Z,8.60
2018-12-23T09:34:01.821Z,8.60
2018-12-23T09:36:31.311Z,8.60
2018-12-23T09:39:00.717Z,8.60
2018-12-23T09:41:30.167Z,8.60
2018-12-23T09:44:00.389Z,8.60
2018-12-23T09:46:29.956Z,8.60
2018-12-23T09:48:59.430Z,8.70
2018-12-23T09:51:28.899Z,8.60
2018-12-23T09:53:58.708Z,8.70
2018-12-23T09:56:28.172Z,8.70
2018-12-23T09:58:57.691Z,8.70
2018-12-23T10:01:27.271Z,8.70
2018-12-23T10:03:57.351Z,8.60
2018-12-23T10:06:26.835Z,8.60
2018-12-23T10:08:56.377Z,8.60
2018-12-23T10:11:25.852Z,8.60
2018-12-23T10:13:55.352Z,8.70
2018-12-23T10:16:24.855Z,8.60
2018-12-23T10:18:54.347Z,8.60
2018-12-23T10:21:24.319Z,8.50
2018-12-23T10:23:54.155Z,8.50
2018-12-23T10:26:24.019Z,8.40
2018-12-23T10:28:53.517Z,8.40
2018-12-23T10:31:23.034Z,8.40
2018-12-23T10:33:52.776Z,8.40
2018-12-23T10:36:22.348Z,8.30
2018-12-23T10:38:51.965Z,8.30
2018-12-23T10:41:21.525Z,8.40
2018-12-23T10:43:51.167Z,8.40
2018-12-23T10:46:20.927Z,8.40
2018-12-23T10:48:50.459Z,8.50
2018-12-23T10:51:19.866Z,8.60
2018-12-23T10:53:49.316Z,8.70
2018-12-23T10:56:19.475Z,8.80
2018-12-23T10:58:49.047Z,8.90
2018-12-23T11:01:19.567Z,8.90
2018-12-23T11:03:48.990Z,8.90
2018-12-23T11:06:18.467Z,8.80
2018-12-23T11:08:48.231Z,8.90
2018-12-23T11:11:17.728Z,8.90
2018-12-23T11:13:47.218Z,9.00
2018-12-23T11:16:18.369Z,9.00
2018-12-23T11:18:48.048Z,9.00
2018-12-23T11:21:18.091Z,9.00
2018-12-23T11:23:47.575Z,9.00
2018-12-23T11:26:17.248Z,9.00
2018-12-23T11:28:46.770Z,9.10
2018-12-23T11:31:16.327Z,9.20
2018-12-23T11:33:45.870Z,9.20
2018-12-23T11:36:15.380Z,9.20
2018-12-23T11:38:44.963Z,9.20
2018-12-23T11:41:14.731Z,9.20
2018-12-23T11:43:44.318Z,9.20
2018-12-23T11:46:13.859Z,9.20
2018-12-23T11:48:43.271Z,9.20
2018-12-23T11:51:12.793Z,9.20
2018-12-23T11:53:42.277Z,9.20
2018-12-23T11:56:12.166Z,9.10
2018-12-23T11:58:41.643Z,9.10
2018-12-23T12:01:11.157Z,9.10
2018-12-23T12:03:40.649Z,9.00
2018-12-23T12:06:10.149Z,9.00
2018-12-23T12:08:43.684Z,9.00
2018-12-23T12:11:11.034Z,9.00
2018-12-23T12:13:40.655Z,8.90
2018-12-23T12:16:10.218Z,8.90
2018-12-23T12:18:39.768Z,9.00
2018-12-23T12:21:09.308Z,9.00
2018-12-23T12:23:39.268Z,9.00
2018-12-23T12:26:08.884Z,8.90
2018-12-23T12:28:38.535Z,8.90
2018-12-23T12:31:08.176Z,9.00
2018-12-23T12:33:37.863Z,9.00
2018-12-23T12:36:07.483Z,9.00
2018-12-23T12:38:36.957Z,9.00
2018-12-23T12:41:06.572Z,9.00
2018-12-23T12:43:36.422Z,9.00
2018-12-23T12:46:06.094Z,9.00
2018-12-23T12:48:35.756Z,9.00
2018-12-23T12:51:05.356Z,9.00
2018-12-23T12:53:34.819Z,9.10
2018-12-23T12:56:08.255Z,9.10
2018-12-23T12:58:38.370Z,9.10
2018-12-23T13:01:08.181Z,9.00
2018-12-23T13:03:37.724Z,9.00
2018-12-23T13:06:07.232Z,9.00
2018-12-23T13:08:36.796Z,9.00
2018-12-23T13:11:06.359Z,9.00
2018-12-23T13:13:35.892Z,9.00
2018-12-23T13:16:05.568Z,9.00
2018-12-23T13:18:35.019Z,9.00
2018-12-23T13:21:04.962Z,8.90
2018-12-23T13:23:34.704Z,9.00
2018-12-23T13:26:04.487Z,9.00
2018-12-23T13:28:33.977Z,9.00
2018-12-23T13:31:03.619Z,8.90
2018-12-23T13:33:33.301Z,8.90
2018-12-23T13:36:02.853Z,8.90
2018-12-23T13:38:32.771Z,8.90
2018-12-23T13:41:27.515Z,9.00
2018-12-23T13:44:39.899Z,9.00
2018-12-23T13:47:48.951Z,8.90
2018-12-23T13:50:51.147Z,8.90
2018-12-23T13:54:03.655Z,8.90
2018-12-23T13:57:10.467Z,8.90
2018-12-23T14:00:08.563Z,9.00
2018-12-23T14:03:37.664Z,8.90
2018-12-23T14:06:49.981Z,8.90
2018-12-23T14:09:51.928Z,8.90
2018-12-23T14:12:21.564Z,9.00
2018-12-23T14:14:51.374Z,9.00
2018-12-23T14:17:20.946Z,9.00
2018-12-23T14:19:50.636Z,9.00
2018-12-23T14:22:20.155Z,8.90
2018-12-23T14:24:49.715Z,8.90
2018-12-23T14:27:19.445Z,9.00
2018-12-23T14:29:49.121Z,9.20
2018-12-23T14:32:18.970Z,9.30
2018-12-23T14:35:00.453Z,9.30
2018-12-23T14:40:39.952Z,9.20
2018-12-23T14:43:21.029Z,9.40
2018-12-23T14:46:02.460Z,9.60
2018-12-23T14:48:31.684Z,9.80
2018-12-23T14:51:20.147Z,10.00
2018-12-23T14:54:08.517Z,10.20
2018-12-23T14:56:56.890Z,10.30
2018-12-23T14:59:45.325Z,10.50
2018-12-23T15:02:33.684Z,10.40
2018-12-23T15:05:22.035Z,10.40
2018-12-23T15:08:10.377Z,10.30
2018-12-23T15:10:58.867Z,10.10
2018-12-23T15:13:47.266Z,10.00
2018-12-23T15:16:35.627Z,9.80
2018-12-23T15:19:24.101Z,9.60
2018-12-23T15:22:12.517Z,9.50
2018-12-23T15:25:01.090Z,9.30
2018-12-23T15:27:49.436Z,9.30
2018-12-23T15:30:38.145Z,9.10
2018-12-23T15:33:26.542Z,9.00
2018-12-23T15:36:15.675Z,8.90
2018-12-23T15:39:24.511Z,8.80
2018-12-23T15:42:12.952Z,8.70
2018-12-23T15:44:53.595Z,8.70
2018-12-23T15:47:34.699Z,8.60
2018-12-23T15:50:15.798Z,8.70
2018-12-23T15:52:57.172Z,8.70
2018-12-23T15:55:26.516Z,8.60
2018-12-23T15:58:14.830Z,8.60
2018-12-23T16:01:03.561Z,8.60
2018-12-23T16:03:52.010Z,8.50
2018-12-23T16:06:40.499Z,8.50
2018-12-23T16:09:28.877Z,8.50
2018-12-23T16:12:17.235Z,8.50
2018-12-23T16:15:05.667Z,8.40
2018-12-23T16:17:53.991Z,8.40
2018-12-23T16:20:42.322Z,8.50
2018-12-23T16:23:30.662Z,8.50
2018-12-23T16:26:19.259Z,8.50
2018-12-23T16:29:07.724Z,8.40
2018-12-23T16:31:56.069Z,8.40
2018-12-23T16:34:44.391Z,8.40
2018-12-23T16:37:32.754Z,8.30
2018-12-23T16:40:21.122Z,8.30
2018-12-23T16:43:09.443Z,8.30
2018-12-23T16:45:50.460Z,8.30
2018-12-23T16:48:31.365Z,8.30
2018-12-23T16:51:12.206Z,8.30
2018-12-23T16:56:38.398Z,8.30
2018-12-23T16:59:19.228Z,8.30
2018-12-23T17:02:00.536Z,8.30
2018-12-23T17:04:29.747Z,8.30
2018-12-23T17:07:18.108Z,8.30
2018-12-23T17:10:08.450Z,8.30
2018-12-23T17:12:57.549Z,8.40
2018-12-23T17:15:45.961Z,8.30
2018-12-23T17:18:34.320Z,8.30
2018-12-23T17:21:22.659Z,8.30
2018-12-23T17:24:10.991Z,8.30
2018-12-23T17:26:59.311Z,8.20
2018-12-23T17:29:47.643Z,8.20
2018-12-23T17:32:36.239Z,8.20
2018-12-23T17:35:24.712Z,8.20
2018-12-23T17:38:13.075Z,8.20
2018-12-23T17:41:01.522Z,8.20
2018-12-23T17:43:50.807Z,8.20
2018-12-23T17:46:32.278Z,8.20
2018-12-23T17:49:13.804Z,8.20
2018-12-23T17:51:54.841Z,8.20
2018-12-23T17:54:35.551Z,8.10
2018-12-23T17:57:16.233Z,8.20
2018-12-23T17:59:57.362Z,8.20
2018-12-23T18:02:38.635Z,8.20
2018-12-23T18:05:19.551Z,8.20
2018-12-23T18:08:00.367Z,8.10
2018-12-23T18:10:41.415Z,8.10
2018-12-23T18:13:22.021Z,8.10
2018-12-23T18:16:02.897Z,8.10
2018-12-23T18:18:44.224Z,8.10
2018-12-23T18:21:13.467Z,8.10
2018-12-23T18:24:01.808Z,8.20
2018-12-23T18:26:50.133Z,8.20
2018-12-23T18:29:38.484Z,8.10
2018-12-23T18:32:26.823Z,8.20
2018-12-23T18:35:15.208Z,8.20
2018-12-23T18:38:03.586Z,8.10
2018-12-23T18:40:51.957Z,8.10
2018-12-23T18:43:40.283Z,8.10
2018-12-23T18:46:20.870Z,8.00
2018-12-23T18:48:50.158Z,8.00
2018-12-23T18:51:38.504Z,8.00
2018-12-23T18:54:07.748Z,8.00
2018-12-23T18:57:00.068Z,7.90
2018-12-23T18:59:49.072Z,7.90
2018-12-23T19:02:40.313Z,8.00
2018-12-23T19:05:28.708Z,7.90
2018-12-23T19:08:19.001Z,7.90
2018-12-23T19:11:12.062Z,7.90
2018-12-23T19:14:19.471Z,7.90
2018-12-23T19:17:26.902Z,7.90
2018-12-23T19:20:34.335Z,8.00
2018-12-23T19:23:41.827Z,7.90
2018-12-23T19:26:49.234Z,7.90
2018-12-23T19:29:56.679Z,7.90
2018-12-23T19:33:04.159Z,7.90
2018-12-23T19:36:11.880Z,7.90
2018-12-23T19:39:19.380Z,7.90
2018-12-23T19:42:26.817Z,7.90
2018-12-23T19:45:07.871Z,8.00
2018-12-23T19:47:48.695Z,8.00
2018-12-23T19:50:29.860Z,7.90
2018-12-23T19:53:10.979Z,7.90
2018-12-23T19:55:51.780Z,7.80
2018-12-23T19:58:32.415Z,7.80
2018-12-23T20:01:13.814Z,7.90
2018-12-23T20:03:54.607Z,7.90
2018-12-23T20:06:35.982Z,7.90
2018-12-23T20:09:16.915Z,7.90
2018-12-23T20:11:57.839Z,7.90
2018-12-23T20:14:39.679Z,7.80
2018-12-23T20:17:21.248Z,7.80
2018-12-23T20:20:02.297Z,7.80
2018-12-23T20:22:43.437Z,7.80
2018-12-23T20:25:51.011Z,7.80
2018-12-23T20:28:58.772Z,7.70
2018-12-23T20:32:06.542Z,7.80
2018-12-23T20:35:14.596Z,7.70
2018-12-23T20:38:22.405Z,7.70
2018-12-23T20:41:30.335Z,7.70
2018-12-23T20:44:37.960Z,7.70
2018-12-23T20:47:18.968Z,7.70
2018-12-23T20:50:00.226Z,7.70
2018-12-23T20:52:42.376Z,7.70
2018-12-23T20:55:23.816Z,7.80
2018-12-23T20:58:05.568Z,7.70
2018-12-23T21:00:46.887Z,7.80
2018-12-23T21:03:28.096Z,7.80
2018-12-23T21:06:09.674Z,7.80
2018-12-23T21:08:50.913Z,7.80
2018-12-23T21:11:31.862Z,7.70
2018-12-23T21:14:12.689Z,7.70
2018-12-23T21:16:53.387Z,7.80
2018-12-23T21:19:34.359Z,7.80
2018-12-23T21:22:15.371Z,7.70
2018-12-23T21:24:56.304Z,7.80
2018-12-23T21:27:37.733Z,7.70
2018-12-23T21:30:18.495Z,7.70
2018-12-23T21:32:59.306Z,7.70
2018-12-23T21:35:40.376Z,7.70
2018-12-23T21:38:21.268Z,7.70
2018-12-23T21:41:02.822Z,7.80
2018-12-23T21:43:44.448Z,7.70
2018-12-23T21:46:25.146Z,7.80
2018-12-23T21:49:09.021Z,7.80
2018-12-23T21:51:49.679Z,7.80
2018-12-23T21:54:31.159Z,7.80
2018-12-23T21:57:12.297Z,7.80
2018-12-23T21:59:52.949Z,7.80
2018-12-23T22:02:33.999Z,7.80
2018-12-23T22:05:14.652Z,7.90
2018-12-23T22:08:22.144Z,7.80
2018-12-23T22:11:33.167Z,7.90
2018-12-23T22:14:19.637Z,7.80
2018-12-23T22:17:07.967Z,7.80
2018-12-23T22:19:56.331Z,7.80
2018-12-23T22:22:44.771Z,7.80
2018-12-23T22:25:33.106Z,7.90
2018-12-23T22:28:21.709Z,7.80
2018-12-23T22:31:10.110Z,7.90
2018-12-23T22:33:58.458Z,7.90
2018-12-23T22:36:46.831Z,7.90
2018-12-23T22:39:35.172Z,7.90
2018-12-23T22:42:23.494Z,7.90
2018-12-23T22:45:11.817Z,7.90
2018-12-23T22:47:52.846Z,7.90
2018-12-23T22:50:34.148Z,7.90
2018-12-23T22:53:15.183Z,7.90
2018-12-23T22:55:55.746Z,7.80
2018-12-23T22:58:36.669Z,7.80
2018-12-23T23:01:18.212Z,7.90
2018-12-23T23:03:58.890Z,7.80
2018-12-23T23:06:40.046Z,7.80
2018-12-23T23:09:20.731Z,7.80
2018-12-23T23:12:01.986Z,7.90
2018-12-23T23:14:31.242Z,7.90
2018-12-23T23:17:19.660Z,7.80
2018-12-23T23:20:08.088Z,7.80
2018-12-23T23:22:56.746Z,7.80
2018-12-23T23:25:45.172Z,7.90
2018-12-23T23:28:33.495Z,7.80
2018-12-23T23:31:21.822Z,7.80
2018-12-23T23:34:10.151Z,7.80
2018-12-23T23:36:58.525Z,7.80
2018-12-23T23:39:46.901Z,7.90
2018-12-23T23:42:35.212Z,7.80
2018-12-23T23:45:23.540Z,7.80
2018-12-23T23:48:04.391Z,7.80
2018-12-23T23:50:45.240Z,7.90
2018-12-23T23:53:26.330Z,7.90
2018-12-23T23:56:07.751Z,7.80
